sensor_id;sensor_type;location;lat;lon;timestamp;pressure;altitude;pressure_sealevel;temperature;humidity
2563;BME280;1291;51.420;6.970;2023-05-19T00:01:39;100954.63;;;35.05;nan
2563;BME280;1291;51.420;6.970;2023-05-19T00:04:08;100959.50;;;34.54;nan
2563;BME280;1291;51.420;6.970;2023-05-19T00:06:34;100961.91;;;35.19;nan
2563;BME280;1291;51.420;6.970;2023-05-19T00:09:05;100961.00;;;34.28;nan
2563;BME280;1291;51.420;6.970;2023-05-19T00:11:32;100959.53;;;34.38;nan
2563;BME280;1291;51.420;6.970;2023-05-19T00:13:59;100957.09;;;34.34;nan
2563;BME280;1291;51.420;6.970;2023-05-19T00:16:25;100961.47;;;33.22;nan
2563;BME280;1291;51.420;6.970;2023-05-19T00:18:51;100957.94;;;34.34;nan
2563;BME280;1291;51.420;6.970;2023-05-19T00:21:18;100964.22;;;34.81;nan
2563;BME280;1291;51.420;6.970;2023-05-19T00:23:44;100959.53;;;33.91;nan
2563;BME280;1291;51.420;6.970;2023-05-19T00:26:10;100960.19;;;34.88;nan
2563;BME280;1291;51.420;6.970;2023-05-19T00:28:36;100971.25;;;33.74;nan
2563;BME280;1291;51.420;6.970;2023-05-19T00:31:03;100961.00;;;34.28;nan
2563;BME280;1291;51.420;6.970;2023-05-19T00:33:29;100960.13;;;33.31;nan
2563;BME280;1291;51.420;6.970;2023-05-19T00:35:54;100960.13;;;34.27;nan
2563;BME280;1291;51.420;6.970;2023-05-19T00:38:20;100964.03;;;34.06;nan
2563;BME280;1291;51.420;6.970;2023-05-19T00:40:46;100968.81;;;33.69;nan
2563;BME280;1291;51.420;6.970;2023-05-19T00:43:12;100957.56;;;33.61;nan
2563;BME280;1291;51.420;6.970;2023-05-19T00:45:37;100960.84;;;33.83;nan
2563;BME280;1291;51.420;6.970;2023-05-19T00:48:02;100953.41;;;34.51;nan
2563;BME280;1291;51.420;6.970;2023-05-19T00:50:28;100965.03;;;34.21;nan
2563;BME280;1291;51.420;6.970;2023-05-19T00:52:54;100969.16;;;34.11;nan
2563;BME280;1291;51.420;6.970;2023-05-19T00:55:22;100963.13;;;34.23;nan
2563;BME280;1291;51.420;6.970;2023-05-19T00:57:51;100953.91;;;34.57;nan
2563;BME280;1291;51.420;6.970;2023-05-19T01:00:17;100958.09;;;34.17;nan
2563;BME280;1291;51.420;6.970;2023-05-19T01:02:42;100950.09;;;34.45;nan
2563;BME280;1291;51.420;6.970;2023-05-19T01:05:08;100950.06;;;34.61;nan
2563;BME280;1291;51.420;6.970;2023-05-19T01:07:34;100951.16;;;34.43;nan
2563;BME280;1291;51.420;6.970;2023-05-19T01:10:01;100953.44;;;34.35;nan
2563;BME280;1291;51.420;6.970;2023-05-19T01:12:26;100961.78;;;34.14;nan
2563;BME280;1291;51.420;6.970;2023-05-19T01:14:52;100959.56;;;33.57;nan
2563;BME280;1291;51.420;6.970;2023-05-19T01:25:47;100956.47;;;33.32;nan
2563;BME280;1291;51.420;6.970;2023-05-19T01:28:25;100952.94;;;33.14;nan
2563;BME280;1291;51.420;6.970;2023-05-19T01:30:57;100953.63;;;33.35;nan
2563;BME280;1291;51.420;6.970;2023-05-19T01:33:24;100955.03;;;33.58;nan
2563;BME280;1291;51.420;6.970;2023-05-19T01:35:52;100952.78;;;33.17;nan
2563;BME280;1291;51.420;6.970;2023-05-19T01:38:19;100944.94;;;33.45;nan
2563;BME280;1291;51.420;6.970;2023-05-19T01:40:46;100953.56;;;33.19;nan
2563;BME280;1291;51.420;6.970;2023-05-19T01:43:16;100949.50;;;34.08;nan
2563;BME280;1291;51.420;6.970;2023-05-19T01:45:43;100944.34;;;33.74;nan
2563;BME280;1291;51.420;6.970;2023-05-19T01:48:09;100961.66;;;33.19;nan
2563;BME280;1291;51.420;6.970;2023-05-19T01:50:36;100951.03;;;32.81;nan
2563;BME280;1291;51.420;6.970;2023-05-19T01:53:01;100959.97;;;33.16;nan
2563;BME280;1291;51.420;6.970;2023-05-19T01:55:27;100958.38;;;32.77;nan
2563;BME280;1291;51.420;6.970;2023-05-19T02:03:36;100965.22;;;31.92;nan
2563;BME280;1291;51.420;6.970;2023-05-19T02:06:32;100967.53;;;33.43;nan
2563;BME280;1291;51.420;6.970;2023-05-19T02:09:14;100965.78;;;32.37;nan
2563;BME280;1291;51.420;6.970;2023-05-19T02:14:32;100963.16;;;32.36;nan
2563;BME280;1291;51.420;6.970;2023-05-19T02:16:59;100967.97;;;32.83;nan
2563;BME280;1291;51.420;6.970;2023-05-19T02:19:37;100961.09;;;33.12;nan
2563;BME280;1291;51.420;6.970;2023-05-19T02:22:06;100968.19;;;31.67;nan
2563;BME280;1291;51.420;6.970;2023-05-19T02:24:34;100965.78;;;32.18;nan
2563;BME280;1291;51.420;6.970;2023-05-19T02:27:02;100957.53;;;32.59;nan
2563;BME280;1291;51.420;6.970;2023-05-19T02:29:27;100965.53;;;33.13;nan
2563;BME280;1291;51.420;6.970;2023-05-19T02:31:52;100967.63;;;32.89;nan
2563;BME280;1291;51.420;6.970;2023-05-19T02:34:18;100959.81;;;32.13;nan
2563;BME280;1291;51.420;6.970;2023-05-19T02:36:43;100951.38;;;33.09;nan
2563;BME280;1291;51.420;6.970;2023-05-19T02:39:09;100955.31;;;32.85;nan
2563;BME280;1291;51.420;6.970;2023-05-19T02:41:35;100952.59;;;33.53;nan
2563;BME280;1291;51.420;6.970;2023-05-19T02:44:01;100946.81;;;33.27;nan
2563;BME280;1291;51.420;6.970;2023-05-19T02:46:26;100944.25;;;31.63;nan
2563;BME280;1291;51.420;6.970;2023-05-19T02:48:51;100937.97;;;32.90;nan
2563;BME280;1291;51.420;6.970;2023-05-19T02:51:17;100949.66;;;32.37;nan
2563;BME280;1291;51.420;6.970;2023-05-19T02:53:42;100943.22;;;32.40;nan
2563;BME280;1291;51.420;6.970;2023-05-19T02:56:07;100936.31;;;32.88;nan
2563;BME280;1291;51.420;6.970;2023-05-19T02:58:33;100933.91;;;32.83;nan
2563;BME280;1291;51.420;6.970;2023-05-19T03:00:58;100936.06;;;31.47;nan
2563;BME280;1291;51.420;6.970;2023-05-19T03:03:23;100933.50;;;31.63;nan
2563;BME280;1291;51.420;6.970;2023-05-19T03:05:49;100937.09;;;32.55;nan
2563;BME280;1291;51.420;6.970;2023-05-19T03:08:14;100935.22;;;32.92;nan
2563;BME280;1291;51.420;6.970;2023-05-19T03:10:39;100941.38;;;33.12;nan
2563;BME280;1291;51.420;6.970;2023-05-19T03:13:05;100937.38;;;32.85;nan
2563;BME280;1291;51.420;6.970;2023-05-19T03:15:30;100942.69;;;33.03;nan
2563;BME280;1291;51.420;6.970;2023-05-19T03:18:03;100940.84;;;32.70;nan
2563;BME280;1291;51.420;6.970;2023-05-19T03:20:28;100941.25;;;32.80;nan
2563;BME280;1291;51.420;6.970;2023-05-19T03:22:54;100941.13;;;32.10;nan
2563;BME280;1291;51.420;6.970;2023-05-19T03:25:24;100950.00;;;31.74;nan
2563;BME280;1291;51.420;6.970;2023-05-19T03:27:49;100949.63;;;32.01;nan
2563;BME280;1291;51.420;6.970;2023-05-19T03:30:14;100944.63;;;31.74;nan
2563;BME280;1291;51.420;6.970;2023-05-19T03:32:40;100949.19;;;30.71;nan
2563;BME280;1291;51.420;6.970;2023-05-19T03:35:05;100948.59;;;30.42;nan
2563;BME280;1291;51.420;6.970;2023-05-19T03:37:31;100949.94;;;30.54;nan
2563;BME280;1291;51.420;6.970;2023-05-19T03:39:59;100945.09;;;30.18;nan
2563;BME280;1291;51.420;6.970;2023-05-19T03:42:25;100950.16;;;30.26;nan
2563;BME280;1291;51.420;6.970;2023-05-19T03:44:50;100951.06;;;30.03;nan
2563;BME280;1291;51.420;6.970;2023-05-19T03:47:21;100948.06;;;31.18;nan
2563;BME280;1291;51.420;6.970;2023-05-19T03:49:47;100945.34;;;31.59;nan
2563;BME280;1291;51.420;6.970;2023-05-19T03:52:12;100945.63;;;31.32;nan
2563;BME280;1291;51.420;6.970;2023-05-19T03:54:37;100948.75;;;30.60;nan
2563;BME280;1291;51.420;6.970;2023-05-19T03:57:04;100943.91;;;31.89;nan
2563;BME280;1291;51.420;6.970;2023-05-19T03:59:29;100946.44;;;31.34;nan
2563;BME280;1291;51.420;6.970;2023-05-19T04:01:55;100956.13;;;30.10;nan
2563;BME280;1291;51.420;6.970;2023-05-19T04:04:21;100947.59;;;30.87;nan
2563;BME280;1291;51.420;6.970;2023-05-19T04:06:47;100944.47;;;31.58;nan
2563;BME280;1291;51.420;6.970;2023-05-19T04:09:13;100952.66;;;30.73;nan
2563;BME280;1291;51.420;6.970;2023-05-19T04:11:39;100951.50;;;31.40;nan
2563;BME280;1291;51.420;6.970;2023-05-19T04:14:08;100956.38;;;31.52;nan
2563;BME280;1291;51.420;6.970;2023-05-19T04:16:33;100958.41;;;32.04;nan
2563;BME280;1291;51.420;6.970;2023-05-19T04:18:59;100954.53;;;31.53;nan
2563;BME280;1291;51.420;6.970;2023-05-19T04:21:25;100962.16;;;31.81;nan
2563;BME280;1291;51.420;6.970;2023-05-19T04:23:50;100954.50;;;32.11;nan
2563;BME280;1291;51.420;6.970;2023-05-19T04:26:16;100950.53;;;32.01;nan
2563;BME280;1291;51.420;6.970;2023-05-19T04:28:42;100945.88;;;32.22;nan
2563;BME280;1291;51.420;6.970;2023-05-19T04:31:12;100949.91;;;32.14;nan
2563;BME280;1291;51.420;6.970;2023-05-19T04:33:39;100955.56;;;31.30;nan
2563;BME280;1291;51.420;6.970;2023-05-19T04:36:05;100953.19;;;31.82;nan
2563;BME280;1291;51.420;6.970;2023-05-19T04:38:36;100958.56;;;31.43;nan
2563;BME280;1291;51.420;6.970;2023-05-19T04:41:07;100954.63;;;31.70;nan
2563;BME280;1291;51.420;6.970;2023-05-19T04:43:35;100959.09;;;31.11;nan
2563;BME280;1291;51.420;6.970;2023-05-19T04:46:01;100958.63;;;32.00;nan
2563;BME280;1291;51.420;6.970;2023-05-19T04:48:30;100957.59;;;31.25;nan
2563;BME280;1291;51.420;6.970;2023-05-19T04:50:55;100965.31;;;31.72;nan
2563;BME280;1291;51.420;6.970;2023-05-19T04:53:20;100958.25;;;31.88;nan
2563;BME280;1291;51.420;6.970;2023-05-19T04:55:46;100968.41;;;31.03;nan
2563;BME280;1291;51.420;6.970;2023-05-19T04:58:11;100971.13;;;30.81;nan
2563;BME280;1291;51.420;6.970;2023-05-19T05:00:36;100966.13;;;30.71;nan
2563;BME280;1291;51.420;6.970;2023-05-19T05:03:02;100968.44;;;30.81;nan
2563;BME280;1291;51.420;6.970;2023-05-19T05:05:33;100974.09;;;30.52;nan
2563;BME280;1291;51.420;6.970;2023-05-19T05:08:02;100964.94;;;30.79;nan
2563;BME280;1291;51.420;6.970;2023-05-19T05:10:27;100959.25;;;30.66;nan
2563;BME280;1291;51.420;6.970;2023-05-19T05:12:53;100966.44;;;31.06;nan
2563;BME280;1291;51.420;6.970;2023-05-19T05:15:19;100968.31;;;30.84;nan
2563;BME280;1291;51.420;6.970;2023-05-19T05:17:44;100971.53;;;30.27;nan
2563;BME280;1291;51.420;6.970;2023-05-19T05:20:10;100963.09;;;31.22;nan
2563;BME280;1291;51.420;6.970;2023-05-19T05:22:37;100972.00;;;30.39;nan
2563;BME280;1291;51.420;6.970;2023-05-19T05:25:06;100962.22;;;31.99;nan
2563;BME280;1291;51.420;6.970;2023-05-19T05:27:32;100967.53;;;32.00;nan
2563;BME280;1291;51.420;6.970;2023-05-19T05:29:57;100973.06;;;31.97;nan
2563;BME280;1291;51.420;6.970;2023-05-19T05:32:22;100965.22;;;31.92;nan
2563;BME280;1291;51.420;6.970;2023-05-19T05:34:48;100967.50;;;32.21;nan
2563;BME280;1291;51.420;6.970;2023-05-19T05:37:14;100969.44;;;31.60;nan
2563;BME280;1291;51.420;6.970;2023-05-19T05:39:42;100965.75;;;32.56;nan
2563;BME280;1291;51.420;6.970;2023-05-19T05:42:07;100966.25;;;31.90;nan
2563;BME280;1291;51.420;6.970;2023-05-19T05:44:36;100961.09;;;33.45;nan
2563;BME280;1291;51.420;6.970;2023-05-19T05:47:02;100959.91;;;31.91;nan
2563;BME280;1291;51.420;6.970;2023-05-19T05:49:28;100966.53;;;33.10;nan
2563;BME280;1291;51.420;6.970;2023-05-19T05:51:53;100959.53;;;30.80;nan
2563;BME280;1291;51.420;6.970;2023-05-19T05:54:20;100957.69;;;31.82;nan
2563;BME280;1291;51.420;6.970;2023-05-19T05:56:46;100950.16;;;32.63;nan
2563;BME280;1291;51.420;6.970;2023-05-19T05:59:13;100951.38;;;32.02;nan
2563;BME280;1291;51.420;6.970;2023-05-19T06:01:44;100957.53;;;32.77;nan
2563;BME280;1291;51.420;6.970;2023-05-19T06:04:18;100949.28;;;33.15;nan
2563;BME280;1291;51.420;6.970;2023-05-19T06:06:47;100952.31;;;32.74;nan
2563;BME280;1291;51.420;6.970;2023-05-19T06:09:13;100945.97;;;33.27;nan
2563;BME280;1291;51.420;6.970;2023-05-19T06:11:38;100945.47;;;32.49;nan
2563;BME280;1291;51.420;6.970;2023-05-19T06:14:03;100950.69;;;33.04;nan
2563;BME280;1291;51.420;6.970;2023-05-19T06:16:28;100941.88;;;31.76;nan
2563;BME280;1291;51.420;6.970;2023-05-19T06:18:54;100938.16;;;31.97;nan
2563;BME280;1291;51.420;6.970;2023-05-19T06:21:19;100942.63;;;31.97;nan
2563;BME280;1291;51.420;6.970;2023-05-19T06:23:45;100951.88;;;31.32;nan
2563;BME280;1291;51.420;6.970;2023-05-19T06:26:11;100941.03;;;31.73;nan
2563;BME280;1291;51.420;6.970;2023-05-19T06:28:36;100945.00;;;33.44;nan
2563;BME280;1291;51.420;6.970;2023-05-19T06:31:01;100945.34;;;33.87;nan
2563;BME280;1291;51.420;6.970;2023-05-19T06:33:27;100940.78;;;35.69;nan
2563;BME280;1291;51.420;6.970;2023-05-19T06:35:52;100938.50;;;36.32;nan
2563;BME280;1291;51.420;6.970;2023-05-19T06:38:17;100941.78;;;34.64;nan
2563;BME280;1291;51.420;6.970;2023-05-19T06:40:43;100936.75;;;34.89;nan
2563;BME280;1291;51.420;6.970;2023-05-19T06:43:08;100940.19;;;35.35;nan
2563;BME280;1291;51.420;6.970;2023-05-19T06:45:34;100946.19;;;34.51;nan
2563;BME280;1291;51.420;6.970;2023-05-19T06:47:59;100943.09;;;33.79;nan
2563;BME280;1291;51.420;6.970;2023-05-19T06:50:24;100946.00;;;33.09;nan
2563;BME280;1291;51.420;6.970;2023-05-19T06:52:49;100944.59;;;33.52;nan
2563;BME280;1291;51.420;6.970;2023-05-19T06:55:15;100956.00;;;32.17;nan
2563;BME280;1291;51.420;6.970;2023-05-19T06:57:42;100944.59;;;33.52;nan
2563;BME280;1291;51.420;6.970;2023-05-19T07:00:07;100943.91;;;35.04;nan
2563;BME280;1291;51.420;6.970;2023-05-19T07:02:36;100946.94;;;33.58;nan
2563;BME280;1291;51.420;6.970;2023-05-19T07:05:01;100943.78;;;33.67;nan
2563;BME280;1291;51.420;6.970;2023-05-19T07:07:27;100941.28;;;34.74;nan
2563;BME280;1291;51.420;6.970;2023-05-19T07:09:52;100943.00;;;34.44;nan
2563;BME280;1291;51.420;6.970;2023-05-19T07:12:17;100944.09;;;34.56;nan
2563;BME280;1291;51.420;6.970;2023-05-19T07:14:43;100938.75;;;35.58;nan
2563;BME280;1291;51.420;6.970;2023-05-19T07:17:08;100947.69;;;35.01;nan
2563;BME280;1291;51.420;6.970;2023-05-19T07:19:33;100944.91;;;34.73;nan
2563;BME280;1291;51.420;6.970;2023-05-19T07:21:59;100944.47;;;35.68;nan
2563;BME280;1291;51.420;6.970;2023-05-19T07:24:24;100938.75;;;35.30;nan
2563;BME280;1291;51.420;6.970;2023-05-19T07:26:51;100946.41;;;34.16;nan
2563;BME280;1291;51.420;6.970;2023-05-19T07:29:16;100946.25;;;33.87;nan
2563;BME280;1291;51.420;6.970;2023-05-19T07:31:42;100949.09;;;33.68;nan
2563;BME280;1291;51.420;6.970;2023-05-19T07:34:07;100944.03;;;34.10;nan
2563;BME280;1291;51.420;6.970;2023-05-19T07:36:32;100942.50;;;33.74;nan
2563;BME280;1291;51.420;6.970;2023-05-19T07:38:58;100941.19;;;34.13;nan
2563;BME280;1291;51.420;6.970;2023-05-19T07:41:26;100941.72;;;33.72;nan
2563;BME280;1291;51.420;6.970;2023-05-19T07:43:54;100937.75;;;34.88;nan
2563;BME280;1291;51.420;6.970;2023-05-19T07:46:20;100938.84;;;33.42;nan
2563;BME280;1291;51.420;6.970;2023-05-19T07:48:46;100922.50;;;35.87;nan
2563;BME280;1291;51.420;6.970;2023-05-19T07:51:12;100927.44;;;35.52;nan
2563;BME280;1291;51.420;6.970;2023-05-19T07:53:37;100928.69;;;33.80;nan
2563;BME280;1291;51.420;6.970;2023-05-19T07:56:03;100924.94;;;35.34;nan
2563;BME280;1291;51.420;6.970;2023-05-19T07:58:28;100925.34;;;35.57;nan
2563;BME280;1291;51.420;6.970;2023-05-19T08:00:57;100923.16;;;37.36;nan
2563;BME280;1291;51.420;6.970;2023-05-19T08:03:23;100927.13;;;34.84;nan
2563;BME280;1291;51.420;6.970;2023-05-19T08:05:48;100930.75;;;34.69;nan
2563;BME280;1291;51.420;6.970;2023-05-19T08:08:14;100921.72;;;34.99;nan
2563;BME280;1291;51.420;6.970;2023-05-19T08:10:40;100915.53;;;35.27;nan
2563;BME280;1291;51.420;6.970;2023-05-19T08:13:06;100920.16;;;37.78;nan
2563;BME280;1291;51.420;6.970;2023-05-19T08:15:31;100916.75;;;37.12;nan
2563;BME280;1291;51.420;6.970;2023-05-19T08:17:56;100911.50;;;35.90;nan
2563;BME280;1291;51.420;6.970;2023-05-19T08:20:22;100910.63;;;35.90;nan
2563;BME280;1291;51.420;6.970;2023-05-19T08:22:48;100908.53;;;35.66;nan
2563;BME280;1291;51.420;6.970;2023-05-19T08:25:13;100907.19;;;35.73;nan
2563;BME280;1291;51.420;6.970;2023-05-19T08:27:39;100904.84;;;36.89;nan
2563;BME280;1291;51.420;6.970;2023-05-19T08:30:05;100891.53;;;39.38;nan
2563;BME280;1291;51.420;6.970;2023-05-19T08:32:33;100896.66;;;38.38;nan
2563;BME280;1291;51.420;6.970;2023-05-19T08:34:58;100898.44;;;37.03;nan
2563;BME280;1291;51.420;6.970;2023-05-19T08:37:24;100895.00;;;35.80;nan
2563;BME280;1291;51.420;6.970;2023-05-19T08:39:49;100899.19;;;34.55;nan
2563;BME280;1291;51.420;6.970;2023-05-19T08:42:14;100890.25;;;34.99;nan
2563;BME280;1291;51.420;6.970;2023-05-19T08:44:40;100885.72;;;36.39;nan
2563;BME280;1291;51.420;6.970;2023-05-19T08:47:07;100890.19;;;35.86;nan
2563;BME280;1291;51.420;6.970;2023-05-19T08:49:42;100887.41;;;37.06;nan
2563;BME280;1291;51.420;6.970;2023-05-19T08:54:54;100884.16;;;34.65;nan
2563;BME280;1291;51.420;6.970;2023-05-19T08:57:26;100880.19;;;36.68;nan
2563;BME280;1291;51.420;6.970;2023-05-19T08:59:53;100883.34;;;37.13;nan
2563;BME280;1291;51.420;6.970;2023-05-19T09:02:20;100878.03;;;36.06;nan
2563;BME280;1291;51.420;6.970;2023-05-19T09:04:46;100879.44;;;35.14;nan
2563;BME280;1291;51.420;6.970;2023-05-19T09:07:13;100872.13;;;36.13;nan
2563;BME280;1291;51.420;6.970;2023-05-19T09:09:39;100873.50;;;35.79;nan
2563;BME280;1291;51.420;6.970;2023-05-19T09:12:08;100879.13;;;35.76;nan
2563;BME280;1291;51.420;6.970;2023-05-19T09:14:33;100870.34;;;37.55;nan
2563;BME280;1291;51.420;6.970;2023-05-19T09:17:02;100860.81;;;37.49;nan
2563;BME280;1291;51.420;6.970;2023-05-19T09:19:28;100858.94;;;38.35;nan
2563;BME280;1291;51.420;6.970;2023-05-19T09:21:57;100875.44;;;35.77;nan
2563;BME280;1291;51.420;6.970;2023-05-19T09:24:24;100868.66;;;37.28;nan
2563;BME280;1291;51.420;6.970;2023-05-19T09:26:50;100865.19;;;36.49;nan
2563;BME280;1291;51.420;6.970;2023-05-19T09:29:16;100852.41;;;38.84;nan
2563;BME280;1291;51.420;6.970;2023-05-19T09:31:54;100856.56;;;38.54;nan
2563;BME280;1291;51.420;6.970;2023-05-19T09:34:24;100864.84;;;36.01;nan
2563;BME280;1291;51.420;6.970;2023-05-19T09:36:51;100854.47;;;35.39;nan
2563;BME280;1291;51.420;6.970;2023-05-19T09:39:21;100857.06;;;36.09;nan
2563;BME280;1291;51.420;6.970;2023-05-19T09:41:50;100857.00;;;37.02;nan
2563;BME280;1291;51.420;6.970;2023-05-19T09:44:24;100846.22;;;38.00;nan
2563;BME280;1291;51.420;6.970;2023-05-19T09:46:54;100857.19;;;35.80;nan
2563;BME280;1291;51.420;6.970;2023-05-19T09:49:25;100846.38;;;35.80;nan
2563;BME280;1291;51.420;6.970;2023-05-19T09:52:01;100841.19;;;35.63;nan
2563;BME280;1291;51.420;6.970;2023-05-19T09:54:27;100847.16;;;36.22;nan
2563;BME280;1291;51.420;6.970;2023-05-19T09:57:00;100837.28;;;36.49;nan
2563;BME280;1291;51.420;6.970;2023-05-19T09:59:26;100830.72;;;37.78;nan
2563;BME280;1291;51.420;6.970;2023-05-19T10:01:53;100828.59;;;38.30;nan
2563;BME280;1291;51.420;6.970;2023-05-19T10:04:20;100826.09;;;39.41;nan
2563;BME280;1291;51.420;6.970;2023-05-19T10:06:48;100836.19;;;36.51;nan
2563;BME280;1291;51.420;6.970;2023-05-19T10:09:20;100831.09;;;38.44;nan
2563;BME280;1291;51.420;6.970;2023-05-19T10:11:46;100828.00;;;36.13;nan
2563;BME280;1291;51.420;6.970;2023-05-19T10:14:12;100812.41;;;38.75;nan
2563;BME280;1291;51.420;6.970;2023-05-19T10:16:37;100834.72;;;37.96;nan
2563;BME280;1291;51.420;6.970;2023-05-19T10:19:04;100837.53;;;37.84;nan
2563;BME280;1291;51.420;6.970;2023-05-19T10:21:31;100832.97;;;36.97;nan
2563;BME280;1291;51.420;6.970;2023-05-19T10:23:57;100823.44;;;37.42;nan
2563;BME280;1291;51.420;6.970;2023-05-19T10:26:23;100821.16;;;38.09;nan
2563;BME280;1291;51.420;6.970;2023-05-19T10:28:50;100813.03;;;39.24;nan
2563;BME280;1291;51.420;6.970;2023-05-19T10:31:18;100821.56;;;37.55;nan
2563;BME280;1291;51.420;6.970;2023-05-19T10:36:41;100813.47;;;39.51;nan
2563;BME280;1291;51.420;6.970;2023-05-19T10:39:32;100809.38;;;38.33;nan
2563;BME280;1291;51.420;6.970;2023-05-19T10:42:14;100813.41;;;36.15;nan
2563;BME280;1291;51.420;6.970;2023-05-19T10:47:29;100807.56;;;39.90;nan
2563;BME280;1291;51.420;6.970;2023-05-19T10:50:03;100793.53;;;39.73;nan
2563;BME280;1291;51.420;6.970;2023-05-19T10:52:37;100818.88;;;37.18;nan
2563;BME280;1291;51.420;6.970;2023-05-19T10:55:05;100819.28;;;36.22;nan
2563;BME280;1291;51.420;6.970;2023-05-19T10:57:33;100800.63;;;39.53;nan
2563;BME280;1291;51.420;6.970;2023-05-19T11:00:02;100808.97;;;40.89;nan
2563;BME280;1291;51.420;6.970;2023-05-19T11:02:41;100799.13;;;41.97;nan
2563;BME280;1291;51.420;6.970;2023-05-19T11:05:10;100810.22;;;37.00;nan
2563;BME280;1291;51.420;6.970;2023-05-19T11:07:40;100799.09;;;38.14;nan
2563;BME280;1291;51.420;6.970;2023-05-19T11:10:05;100798.28;;;39.81;nan
2563;BME280;1291;51.420;6.970;2023-05-19T11:12:39;100800.56;;;39.10;nan
2563;BME280;1291;51.420;6.970;2023-05-19T11:15:11;100804.66;;;38.24;nan
2563;BME280;1291;51.420;6.970;2023-05-19T11:17:38;100794.00;;;39.79;nan
2563;BME280;1291;51.420;6.970;2023-05-19T11:20:07;100785.75;;;40.64;nan
2563;BME280;1291;51.420;6.970;2023-05-19T11:22:33;100785.44;;;37.91;nan
2563;BME280;1291;51.420;6.970;2023-05-19T11:24:59;100786.75;;;38.90;nan
2563;BME280;1291;51.420;6.970;2023-05-19T11:27:32;100790.00;;;39.94;nan
2563;BME280;1291;51.420;6.970;2023-05-19T11:30:07;100796.25;;;38.15;nan
2563;BME280;1291;51.420;6.970;2023-05-19T11:32:36;100789.69;;;40.50;nan
2563;BME280;1291;51.420;6.970;2023-05-19T11:35:06;100791.22;;;37.50;nan
2563;BME280;1291;51.420;6.970;2023-05-19T11:37:32;100777.50;;;39.59;nan
2563;BME280;1291;51.420;6.970;2023-05-19T11:40:00;100788.22;;;38.61;nan
2563;BME280;1291;51.420;6.970;2023-05-19T11:42:26;100785.03;;;38.09;nan
2563;BME280;1291;51.420;6.970;2023-05-19T11:44:54;100778.13;;;38.74;nan
2563;BME280;1291;51.420;6.970;2023-05-19T11:47:19;100791.53;;;35.10;nan
2563;BME280;1291;51.420;6.970;2023-05-19T11:49:51;100786.41;;;36.41;nan
2563;BME280;1291;51.420;6.970;2023-05-19T11:52:16;100776.88;;;36.99;nan
2563;BME280;1291;51.420;6.970;2023-05-19T11:54:47;100780.81;;;38.85;nan
2563;BME280;1291;51.420;6.970;2023-05-19T11:57:12;100767.94;;;41.51;nan
2563;BME280;1291;51.420;6.970;2023-05-19T11:59:38;100762.81;;;39.83;nan
2563;BME280;1291;51.420;6.970;2023-05-19T12:02:23;100767.47;;;40.03;nan
2563;BME280;1291;51.420;6.970;2023-05-19T12:04:50;100766.16;;;41.11;nan
2563;BME280;1291;51.420;6.970;2023-05-19T12:07:21;100767.66;;;39.03;nan
2563;BME280;1291;51.420;6.970;2023-05-19T12:09:48;100761.63;;;40.08;nan
2563;BME280;1291;51.420;6.970;2023-05-19T12:12:15;100759.13;;;38.74;nan
2563;BME280;1291;51.420;6.970;2023-05-19T12:14:42;100765.53;;;39.83;nan
2563;BME280;1291;51.420;6.970;2023-05-19T12:17:15;100757.03;;;40.91;nan
2563;BME280;1291;51.420;6.970;2023-05-19T12:19:50;100762.25;;;41.04;nan
2563;BME280;1291;51.420;6.970;2023-05-19T12:22:16;100753.38;;;41.11;nan
2563;BME280;1291;51.420;6.970;2023-05-19T12:24:43;100754.41;;;39.21;nan
2563;BME280;1291;51.420;6.970;2023-05-19T12:29:34;100766.16;;;36.59;nan
2563;BME280;1291;51.420;6.970;2023-05-19T12:32:00;100739.13;;;38.75;nan
2563;BME280;1291;51.420;6.970;2023-05-19T12:34:25;100745.06;;;37.75;nan
2563;BME280;1291;51.420;6.970;2023-05-19T12:36:50;100743.00;;;38.14;nan
2563;BME280;1291;51.420;6.970;2023-05-19T12:39:16;100744.09;;;37.52;nan
2563;BME280;1291;51.420;6.970;2023-05-19T12:41:43;100741.94;;;38.73;nan
2563;BME280;1291;51.420;6.970;2023-05-19T12:44:15;100749.78;;;40.70;nan
2563;BME280;1291;51.420;6.970;2023-05-19T12:46:40;100736.31;;;40.69;nan
2563;BME280;1291;51.420;6.970;2023-05-19T12:49:06;100736.13;;;39.12;nan
2563;BME280;1291;51.420;6.970;2023-05-19T12:51:31;100728.19;;;39.31;nan
2563;BME280;1291;51.420;6.970;2023-05-19T12:53:57;100732.97;;;40.04;nan
2563;BME280;1291;51.420;6.970;2023-05-19T12:56:24;100728.75;;;38.91;nan
2563;BME280;1291;51.420;6.970;2023-05-19T12:58:53;100721.28;;;37.19;nan
2563;BME280;1291;51.420;6.970;2023-05-19T13:01:19;100714.97;;;38.72;nan
2563;BME280;1291;51.420;6.970;2023-05-19T13:03:47;100727.16;;;37.37;nan
2563;BME280;1291;51.420;6.970;2023-05-19T13:06:12;100727.56;;;36.19;nan
2563;BME280;1291;51.420;6.970;2023-05-19T13:08:40;100712.41;;;37.42;nan
2563;BME280;1291;51.420;6.970;2023-05-19T13:11:05;100721.53;;;35.75;nan
2563;BME280;1291;51.420;6.970;2023-05-19T13:13:31;100712.88;;;39.30;nan
2563;BME280;1291;51.420;6.970;2023-05-19T13:15:57;100711.91;;;40.27;nan
2563;BME280;1291;51.420;6.970;2023-05-19T13:18:22;100721.84;;;38.53;nan
2563;BME280;1291;51.420;6.970;2023-05-19T13:20:48;100712.78;;;41.08;nan
2563;BME280;1291;51.420;6.970;2023-05-19T13:23:15;100719.44;;;39.92;nan
2563;BME280;1291;51.420;6.970;2023-05-19T13:25:43;100718.88;;;40.41;nan
2563;BME280;1291;51.420;6.970;2023-05-19T13:28:12;100720.91;;;40.27;nan
2563;BME280;1291;51.420;6.970;2023-05-19T13:30:38;100717.31;;;40.79;nan
2563;BME280;1291;51.420;6.970;2023-05-19T13:33:10;100715.69;;;40.36;nan
2563;BME280;1291;51.420;6.970;2023-05-19T13:35:36;100706.47;;;39.85;nan
2563;BME280;1291;51.420;6.970;2023-05-19T13:38:08;100714.47;;;39.65;nan
2563;BME280;1291;51.420;6.970;2023-05-19T13:40:34;100712.19;;;40.03;nan
2563;BME280;1291;51.420;6.970;2023-05-19T13:43:02;100710.63;;;40.92;nan
2563;BME280;1291;51.420;6.970;2023-05-19T13:45:28;100701.47;;;39.48;nan
2563;BME280;1291;51.420;6.970;2023-05-19T13:47:53;100695.50;;;41.29;nan
2563;BME280;1291;51.420;6.970;2023-05-19T13:50:19;100698.66;;;41.44;nan
2563;BME280;1291;51.420;6.970;2023-05-19T13:52:44;100709.00;;;38.89;nan
2563;BME280;1291;51.420;6.970;2023-05-19T13:55:10;100691.63;;;41.41;nan
2563;BME280;1291;51.420;6.970;2023-05-19T13:57:35;100693.50;;;40.09;nan
2563;BME280;1291;51.420;6.970;2023-05-19T14:00:01;100693.47;;;39.46;nan